sensor_id;sensor_type;location;lat;lon;timestamp;temperature;humidity
80412;SHT30;69749;42.684;23.360;2023-05-10T00:02:22;9.78;83.92
80412;SHT30;69749;42.684;23.360;2023-05-10T00:04:48;9.78;83.28
80412;SHT30;69749;42.684;23.360;2023-05-10T00:07:13;9.74;83.83
80412;SHT30;69749;42.684;23.360;2023-05-10T00:09:39;9.74;83.54
80412;SHT30;69749;42.684;23.360;2023-05-10T00:12:05;9.67;83.80
80412;SHT30;69749;42.684;23.360;2023-05-10T00:14:30;9.67;83.21
80412;SHT30;69749;42.684;23.360;2023-05-10T00:16:56;9.66;83.68
80412;SHT30;69749;42.684;23.360;2023-05-10T00:19:21;9.58;83.53
80412;SHT30;69749;42.684;23.360;2023-05-10T00:21:47;9.70;83.25
80412;SHT30;69749;42.684;23.360;2023-05-10T00:24:12;9.77;83.43
80412;SHT30;69749;42.684;23.360;2023-05-10T00:26:37;9.84;83.12
80412;SHT30;69749;42.684;23.360;2023-05-10T00:29:03;9.70;82.91
80412;SHT30;69749;42.684;23.360;2023-05-10T00:31:28;9.63;83.01
80412;SHT30;69749;42.684;23.360;2023-05-10T00:33:54;9.47;84.00
80412;SHT30;69749;42.684;23.360;2023-05-10T00:36:19;9.51;84.26
80412;SHT30;69749;42.684;23.360;2023-05-10T00:38:46;9.60;83.61
80412;SHT30;69749;42.684;23.360;2023-05-10T00:41:11;9.63;82.92
80412;SHT30;69749;42.684;23.360;2023-05-10T00:43:36;9.64;83.26
80412;SHT30;69749;42.684;23.360;2023-05-10T00:46:02;9.53;82.49
80412;SHT30;69749;42.684;23.360;2023-05-10T00:48:28;9.46;83.79
80412;SHT30;69749;42.684;23.360;2023-05-10T00:50:54;9.37;83.76
80412;SHT30;69749;42.684;23.360;2023-05-10T00:53:20;9.42;82.47
80412;SHT30;69749;42.684;23.360;2023-05-10T00:55:45;9.39;83.50
80412;SHT30;69749;42.684;23.360;2023-05-10T00:58:11;9.25;83.81
80412;SHT30;69749;42.684;23.360;2023-05-10T01:00:37;9.32;83.80
80412;SHT30;69749;42.684;23.360;2023-05-10T01:03:05;9.43;83.83
80412;SHT30;69749;42.684;23.360;2023-05-10T01:05:30;9.56;83.45
80412;SHT30;69749;42.684;23.360;2023-05-10T01:07:57;9.30;82.94
80412;SHT30;69749;42.684;23.360;2023-05-10T01:10:22;9.27;82.93
80412;SHT30;69749;42.684;23.360;2023-05-10T01:12:47;9.33;83.39
80412;SHT30;69749;42.684;23.360;2023-05-10T01:15:14;9.26;82.75
80412;SHT30;69749;42.684;23.360;2023-05-10T01:17:42;9.37;82.11
80412;SHT30;69749;42.684;23.360;2023-05-10T01:20:10;9.33;82.62
80412;SHT30;69749;42.684;23.360;2023-05-10T01:23:04;9.23;81.94
80412;SHT30;69749;42.684;23.360;2023-05-10T01:25:56;9.16;82.08
80412;SHT30;69749;42.684;23.360;2023-05-10T01:28:42;9.11;82.14
80412;SHT30;69749;42.684;23.360;2023-05-10T01:31:50;9.19;82.31
80412;SHT30;69749;42.684;23.360;2023-05-10T01:34:20;9.23;81.83
80412;SHT30;69749;42.684;23.360;2023-05-10T01:36:55;9.19;81.15
80412;SHT30;69749;42.684;23.360;2023-05-10T01:39:25;9.08;81.45
80412;SHT30;69749;42.684;23.360;2023-05-10T01:41:54;9.19;81.38
80412;SHT30;69749;42.684;23.360;2023-05-10T01:47:42;9.22;81.22
80412;SHT30;69749;42.684;23.360;2023-05-10T01:50:13;9.15;81.28
80412;SHT30;69749;42.684;23.360;2023-05-10T01:52:46;9.19;80.60
80412;SHT30;69749;42.684;23.360;2023-05-10T01:55:15;9.22;80.22
80412;SHT30;69749;42.684;23.360;2023-05-10T01:57:43;9.20;80.88
80412;SHT30;69749;42.684;23.360;2023-05-10T02:00:10;9.09;80.53
80412;SHT30;69749;42.684;23.360;2023-05-10T02:02:39;9.09;81.66
80412;SHT30;69749;42.684;23.360;2023-05-10T02:05:06;9.11;80.45
80412;SHT30;69749;42.684;23.360;2023-05-10T02:07:33;9.23;80.18
80412;SHT30;69749;42.684;23.360;2023-05-10T02:10:02;9.29;80.31
80412;SHT30;69749;42.684;23.360;2023-05-10T02:12:28;9.30;79.55
80412;SHT30;69749;42.684;23.360;2023-05-10T02:14:56;9.32;79.34
80412;SHT30;69749;42.684;23.360;2023-05-10T02:17:22;9.02;81.06
80412;SHT30;69749;42.684;23.360;2023-05-10T02:19:49;8.96;80.83
80412;SHT30;69749;42.684;23.360;2023-05-10T02:22:17;9.02;81.83
80412;SHT30;69749;42.684;23.360;2023-05-10T02:24:44;8.99;80.23
80412;SHT30;69749;42.684;23.360;2023-05-10T02:27:11;8.95;81.49
80412;SHT30;69749;42.684;23.360;2023-05-10T02:29:38;8.88;81.62
80412;SHT30;69749;42.684;23.360;2023-05-10T02:32:04;8.98;80.89
80412;SHT30;69749;42.684;23.360;2023-05-10T02:34:30;8.92;79.92
80412;SHT30;69749;42.684;23.360;2023-05-10T02:36:56;8.88;79.69
80412;SHT30;69749;42.684;23.360;2023-05-10T02:39:23;8.77;78.79
80412;SHT30;69749;42.684;23.360;2023-05-10T02:41:50;8.75;79.03
80412;SHT30;69749;42.684;23.360;2023-05-10T02:44:18;8.65;76.74
80412;SHT30;69749;42.684;23.360;2023-05-10T02:46:44;8.53;75.75
80412;SHT30;69749;42.684;23.360;2023-05-10T02:49:10;8.67;75.45
80412;SHT30;69749;42.684;23.360;2023-05-10T02:51:38;8.81;75.32
80412;SHT30;69749;42.684;23.360;2023-05-10T02:54:18;8.75;74.82
80412;SHT30;69749;42.684;23.360;2023-05-10T02:56:47;8.68;75.43
80412;SHT30;69749;42.684;23.360;2023-05-10T02:59:15;8.63;75.42
80412;SHT30;69749;42.684;23.360;2023-05-10T03:01:41;8.68;75.25
80412;SHT30;69749;42.684;23.360;2023-05-10T03:04:06;8.56;74.58
80412;SHT30;69749;42.684;23.360;2023-05-10T03:06:32;8.33;75.61
80412;SHT30;69749;42.684;23.360;2023-05-10T03:08:58;8.27;75.60
80412;SHT30;69749;42.684;23.360;2023-05-10T03:14:49;8.37;74.91
80412;SHT30;69749;42.684;23.360;2023-05-10T03:20:12;8.34;76.37
80412;SHT30;69749;42.684;23.360;2023-05-10T03:22:45;8.29;75.90
80412;SHT30;69749;42.684;23.360;2023-05-10T03:25:12;8.09;75.79
80412;SHT30;69749;42.684;23.360;2023-05-10T03:27:42;8.06;74.71
80412;SHT30;69749;42.684;23.360;2023-05-10T03:30:10;7.98;75.49
80412;SHT30;69749;42.684;23.360;2023-05-10T03:32:36;7.98;75.77
80412;SHT30;69749;42.684;23.360;2023-05-10T03:35:09;7.92;75.16
80412;SHT30;69749;42.684;23.360;2023-05-10T03:37:35;7.89;75.07
80412;SHT30;69749;42.684;23.360;2023-05-10T03:40:01;8.00;75.52
80412;SHT30;69749;42.684;23.360;2023-05-10T03:42:26;8.09;75.84
80412;SHT30;69749;42.684;23.360;2023-05-10T03:44:52;8.20;75.28
80412;SHT30;69749;42.684;23.360;2023-05-10T03:47:17;8.30;74.66
80412;SHT30;69749;42.684;23.360;2023-05-10T03:49:43;8.03;74.99
80412;SHT30;69749;42.684;23.360;2023-05-10T03:52:08;7.79;75.36
80412;SHT30;69749;42.684;23.360;2023-05-10T03:54:33;7.81;75.53
80412;SHT30;69749;42.684;23.360;2023-05-10T03:56:59;7.95;75.12
80412;SHT30;69749;42.684;23.360;2023-05-10T03:59:26;7.81;75.13
80412;SHT30;69749;42.684;23.360;2023-05-10T04:01:51;7.78;75.60
80412;SHT30;69749;42.684;23.360;2023-05-10T04:04:17;7.92;75.45
80412;SHT30;69749;42.684;23.360;2023-05-10T04:06:44;7.85;75.20
80412;SHT30;69749;42.684;23.360;2023-05-10T04:09:10;7.95;76.08
80412;SHT30;69749;42.684;23.360;2023-05-10T04:11:36;7.96;75.83
80412;SHT30;69749;42.684;23.360;2023-05-10T04:14:01;7.93;75.79
80412;SHT30;69749;42.684;23.360;2023-05-10T04:16:26;7.93;75.91
80412;SHT30;69749;42.684;23.360;2023-05-10T04:18:52;7.83;75.81
80412;SHT30;69749;42.684;23.360;2023-05-10T04:21:17;7.92;75.90
80412;SHT30;69749;42.684;23.360;2023-05-10T04:23:43;7.88;76.11
80412;SHT30;69749;42.684;23.360;2023-05-10T04:26:08;7.89;76.04
80412;SHT30;69749;42.684;23.360;2023-05-10T04:28:33;7.81;75.74
80412;SHT30;69749;42.684;23.360;2023-05-10T04:31:05;7.89;75.47
80412;SHT30;69749;42.684;23.360;2023-05-10T04:33:31;7.78;75.15
80412;SHT30;69749;42.684;23.360;2023-05-10T04:35:56;7.78;75.27
80412;SHT30;69749;42.684;23.360;2023-05-10T04:38:22;7.92;75.32
80412;SHT30;69749;42.684;23.360;2023-05-10T04:40:47;8.02;74.56
80412;SHT30;69749;42.684;23.360;2023-05-10T04:43:13;7.99;75.17
80412;SHT30;69749;42.684;23.360;2023-05-10T04:45:38;7.89;75.07
80412;SHT30;69749;42.684;23.360;2023-05-10T04:48:04;7.96;74.89
80412;SHT30;69749;42.684;23.360;2023-05-10T04:50:29;7.92;75.07
80412;SHT30;69749;42.684;23.360;2023-05-10T04:52:55;7.99;74.84
80412;SHT30;69749;42.684;23.360;2023-05-10T04:55:20;7.96;75.46
80412;SHT30;69749;42.684;23.360;2023-05-10T04:57:46;7.90;76.57
80412;SHT30;69749;42.684;23.360;2023-05-10T05:00:12;8.05;75.74
80412;SHT30;69749;42.684;23.360;2023-05-10T05:02:38;8.20;74.35
80412;SHT30;69749;42.684;23.360;2023-05-10T05:05:04;8.17;74.35
80412;SHT30;69749;42.684;23.360;2023-05-10T05:07:29;8.27;74.83
80412;SHT30;69749;42.684;23.360;2023-05-10T05:09:56;8.25;74.44
80412;SHT30;69749;42.684;23.360;2023-05-10T05:12:21;8.37;74.35
80412;SHT30;69749;42.684;23.360;2023-05-10T05:14:46;8.25;74.23
80412;SHT30;69749;42.684;23.360;2023-05-10T05:17:12;8.20;74.29
80412;SHT30;69749;42.684;23.360;2023-05-10T05:19:37;8.36;74.42
80412;SHT30;69749;42.684;23.360;2023-05-10T05:22:03;8.46;74.05
80412;SHT30;69749;42.684;23.360;2023-05-10T05:24:28;8.53;73.86
80412;SHT30;69749;42.684;23.360;2023-05-10T05:26:53;8.36;74.28
80412;SHT30;69749;42.684;23.360;2023-05-10T05:29:19;8.40;74.46
80412;SHT30;69749;42.684;23.360;2023-05-10T05:31:44;8.40;74.86
80412;SHT30;69749;42.684;23.360;2023-05-10T05:34:10;8.46;74.40
80412;SHT30;69749;42.684;23.360;2023-05-10T05:36:36;8.48;74.99
80412;SHT30;69749;42.684;23.360;2023-05-10T05:39:03;8.30;74.80
80412;SHT30;69749;42.684;23.360;2023-05-10T05:41:29;8.48;75.09
80412;SHT30;69749;42.684;23.360;2023-05-10T05:43:54;8.54;74.69
80412;SHT30;69749;42.684;23.360;2023-05-10T05:46:19;8.60;74.71
80412;SHT30;69749;42.684;23.360;2023-05-10T05:48:45;8.60;74.90
80412;SHT30;69749;42.684;23.360;2023-05-10T05:51:10;8.57;74.53
80412;SHT30;69749;42.684;23.360;2023-05-10T05:53:36;8.53;75.05
80412;SHT30;69749;42.684;23.360;2023-05-10T05:56:01;8.60;74.13
80412;SHT30;69749;42.684;23.360;2023-05-10T05:58:27;8.77;74.72
80412;SHT30;69749;42.684;23.360;2023-05-10T06:00:53;8.56;74.70
80412;SHT30;69749;42.684;23.360;2023-05-10T06:03:19;8.33;74.64
80412;SHT30;69749;42.684;23.360;2023-05-10T06:05:44;8.47;75.82
80412;SHT30;69749;42.684;23.360;2023-05-10T06:08:10;8.51;74.94
80412;SHT30;69749;42.684;23.360;2023-05-10T06:10:36;8.68;76.47
80412;SHT30;69749;42.684;23.360;2023-05-10T06:13:01;8.77;75.68
80412;SHT30;69749;42.684;23.360;2023-05-10T06:15:27;8.69;74.65
80412;SHT30;69749;42.684;23.360;2023-05-10T06:17:52;8.60;73.65
80412;SHT30;69749;42.684;23.360;2023-05-10T06:20:18;8.48;73.51
80412;SHT30;69749;42.684;23.360;2023-05-10T06:22:43;8.37;73.98
80412;SHT30;69749;42.684;23.360;2023-05-10T06:35:56;8.54;73.44
80412;SHT30;69749;42.684;23.360;2023-05-10T06:38:22;8.63;74.64
80412;SHT30;69749;42.684;23.360;2023-05-10T06:40:48;8.47;74.11
80412;SHT30;69749;42.684;23.360;2023-05-10T06:43:14;8.53;74.55
80412;SHT30;69749;42.684;23.360;2023-05-10T06:45:39;8.75;75.08
80412;SHT30;69749;42.684;23.360;2023-05-10T06:48:06;8.79;74.27
80412;SHT30;69749;42.684;23.360;2023-05-10T06:50:31;8.71;73.77
80412;SHT30;69749;42.684;23.360;2023-05-10T06:52:57;8.81;72.48
80412;SHT30;69749;42.684;23.360;2023-05-10T06:55:23;8.89;71.80
80412;SHT30;69749;42.684;23.360;2023-05-10T06:57:48;8.85;71.73
80412;SHT30;69749;42.684;23.360;2023-05-10T07:00:14;8.87;72.26
80412;SHT30;69749;42.684;23.360;2023-05-10T07:02:39;8.89;71.48
80412;SHT30;69749;42.684;23.360;2023-05-10T07:05:05;8.92;71.58
80412;SHT30;69749;42.684;23.360;2023-05-10T07:07:31;9.01;71.82
80412;SHT30;69749;42.684;23.360;2023-05-10T07:09:56;9.02;70.30
80412;SHT30;69749;42.684;23.360;2023-05-10T07:12:23;9.01;71.36
80412;SHT30;69749;42.684;23.360;2023-05-10T07:14:48;8.89;71.12
80412;SHT30;69749;42.684;23.360;2023-05-10T07:17:13;8.89;70.47
80412;SHT30;69749;42.684;23.360;2023-05-10T07:19:39;8.91;71.16
80412;SHT30;69749;42.684;23.360;2023-05-10T07:22:05;9.06;70.59
80412;SHT30;69749;42.684;23.360;2023-05-10T07:24:31;9.23;70.01
80412;SHT30;69749;42.684;23.360;2023-05-10T07:26:57;9.23;70.05
80412;SHT30;69749;42.684;23.360;2023-05-10T07:29:22;9.35;70.17
80412;SHT30;69749;42.684;23.360;2023-05-10T07:31:47;9.46;69.49
80412;SHT30;69749;42.684;23.360;2023-05-10T07:34:13;9.36;68.42
80412;SHT30;69749;42.684;23.360;2023-05-10T07:36:38;9.33;68.37
80412;SHT30;69749;42.684;23.360;2023-05-10T07:39:04;9.48;68.80
80412;SHT30;69749;42.684;23.360;2023-05-10T07:41:30;9.61;69.12
80412;SHT30;69749;42.684;23.360;2023-05-10T07:43:55;9.50;68.61
80412;SHT30;69749;42.684;23.360;2023-05-10T07:46:20;9.40;70.05
80412;SHT30;69749;42.684;23.360;2023-05-10T07:48:46;9.63;68.48
80412;SHT30;69749;42.684;23.360;2023-05-10T07:51:11;9.60;67.79
80412;SHT30;69749;42.684;23.360;2023-05-10T07:53:37;9.58;68.21
80412;SHT30;69749;42.684;23.360;2023-05-10T07:56:30;9.22;68.14
80412;SHT30;69749;42.684;23.360;2023-05-10T07:58:57;9.33;68.26
80412;SHT30;69749;42.684;23.360;2023-05-10T08:01:23;9.47;68.25
80412;SHT30;69749;42.684;23.360;2023-05-10T08:03:49;9.54;67.63
80412;SHT30;69749;42.684;23.360;2023-05-10T08:06:17;9.70;67.41
80412;SHT30;69749;42.684;23.360;2023-05-10T08:08:42;9.71;66.81
80412;SHT30;69749;42.684;23.360;2023-05-10T08:11:08;9.70;67.31
80412;SHT30;69749;42.684;23.360;2023-05-10T08:13:33;9.70;67.64
80412;SHT30;69749;42.684;23.360;2023-05-10T08:15:59;9.78;66.99
80412;SHT30;69749;42.684;23.360;2023-05-10T08:18:24;9.78;67.21
80412;SHT30;69749;42.684;23.360;2023-05-10T08:20:50;9.80;67.48
80412;SHT30;69749;42.684;23.360;2023-05-10T08:23:15;9.76;67.93
80412;SHT30;69749;42.684;23.360;2023-05-10T08:25:40;9.48;68.12
80412;SHT30;69749;42.684;23.360;2023-05-10T08:28:06;9.61;68.04
80412;SHT30;69749;42.684;23.360;2023-05-10T08:30:32;9.58;68.01
80412;SHT30;69749;42.684;23.360;2023-05-10T08:32:57;9.85;67.88
80412;SHT30;69749;42.684;23.360;2023-05-10T08:35:23;9.98;67.38
80412;SHT30;69749;42.684;23.360;2023-05-10T08:37:49;10.12;67.32
80412;SHT30;69749;42.684;23.360;2023-05-10T08:40:15;10.01;67.32
80412;SHT30;69749;42.684;23.360;2023-05-10T08:42:43;9.99;67.96
80412;SHT30;69749;42.684;23.360;2023-05-10T08:45:12;9.83;68.97
80412;SHT30;69749;42.684;23.360;2023-05-10T08:47:38;9.73;68.90
80412;SHT30;69749;42.684;23.360;2023-05-10T08:50:05;9.73;69.87
80412;SHT30;69749;42.684;23.360;2023-05-10T08:52:32;9.88;70.37
80412;SHT30;69749;42.684;23.360;2023-05-10T08:54:58;9.99;69.62
80412;SHT30;69749;42.684;23.360;2023-05-10T08:57:24;10.06;68.82
80412;SHT30;69749;42.684;23.360;2023-05-10T08:59:50;10.26;69.57
80412;SHT30;69749;42.684;23.360;2023-05-10T09:02:16;10.21;68.50
80412;SHT30;69749;42.684;23.360;2023-05-10T09:04:43;10.36;68.68
80412;SHT30;69749;42.684;23.360;2023-05-10T09:07:08;10.43;67.73
80412;SHT30;69749;42.684;23.360;2023-05-10T09:09:36;10.66;67.72
80412;SHT30;69749;42.684;23.360;2023-05-10T09:12:02;10.49;68.04
80412;SHT30;69749;42.684;23.360;2023-05-10T09:14:28;10.36;67.53
80412;SHT30;69749;42.684;23.360;2023-05-10T09:16:54;10.49;67.38
80412;SHT30;69749;42.684;23.360;2023-05-10T09:19:20;10.41;66.56
80412;SHT30;69749;42.684;23.360;2023-05-10T09:21:45;10.49;67.70
80412;SHT30;69749;42.684;23.360;2023-05-10T09:24:11;10.36;67.49
80412;SHT30;69749;42.684;23.360;2023-05-10T09:26:46;10.31;68.06
80412;SHT30;69749;42.684;23.360;2023-05-10T09:29:15;10.26;68.39
80412;SHT30;69749;42.684;23.360;2023-05-10T09:31:47;10.18;69.66
80412;SHT30;69749;42.684;23.360;2023-05-10T09:34:17;10.19;70.32
80412;SHT30;69749;42.684;23.360;2023-05-10T09:36:59;10.34;68.52
80412;SHT30;69749;42.684;23.360;2023-05-10T09:39:33;10.31;68.28
80412;SHT30;69749;42.684;23.360;2023-05-10T09:42:01;10.34;68.93
80412;SHT30;69749;42.684;23.360;2023-05-10T09:44:29;10.45;66.55
80412;SHT30;69749;42.684;23.360;2023-05-10T09:46:54;10.35;65.69
80412;SHT30;69749;42.684;23.360;2023-05-10T09:49:21;10.32;66.74
80412;SHT30;69749;42.684;23.360;2023-05-10T09:51:46;10.24;66.46
80412;SHT30;69749;42.684;23.360;2023-05-10T09:54:14;10.22;66.88
80412;SHT30;69749;42.684;23.360;2023-05-10T09:56:40;10.16;67.14
80412;SHT30;69749;42.684;23.360;2023-05-10T09:59:07;10.08;67.41
80412;SHT30;69749;42.684;23.360;2023-05-10T10:01:33;10.09;67.74
80412;SHT30;69749;42.684;23.360;2023-05-10T10:04:02;10.22;66.70
80412;SHT30;69749;42.684;23.360;2023-05-10T10:06:29;10.39;66.64
80412;SHT30;69749;42.684;23.360;2023-05-10T10:08:54;10.29;66.48
80412;SHT30;69749;42.684;23.360;2023-05-10T10:11:21;10.43;65.91
80412;SHT30;69749;42.684;23.360;2023-05-10T10:13:48;10.38;66.17
80412;SHT30;69749;42.684;23.360;2023-05-10T10:16:13;10.56;66.31
80412;SHT30;69749;42.684;23.360;2023-05-10T10:18:39;10.83;66.41
80412;SHT30;69749;42.684;23.360;2023-05-10T10:21:08;10.85;66.05
80412;SHT30;69749;42.684;23.360;2023-05-10T10:23:37;10.92;64.82
80412;SHT30;69749;42.684;23.360;2023-05-10T10:26:04;11.08;64.17
80412;SHT30;69749;42.684;23.360;2023-05-10T10:28:47;11.14;64.59
80412;SHT30;69749;42.684;23.360;2023-05-10T10:31:28;11.20;63.75
80412;SHT30;69749;42.684;23.360;2023-05-10T10:34:05;11.34;64.27
80412;SHT30;69749;42.684;23.360;2023-05-10T10:36:33;11.34;63.54
80412;SHT30;69749;42.684;23.360;2023-05-10T10:39:09;11.52;64.10
80412;SHT30;69749;42.684;23.360;2023-05-10T10:41:36;11.46;63.67
80412;SHT30;69749;42.684;23.360;2023-05-10T10:50:13;11.55;63.58
80412;SHT30;69749;42.684;23.360;2023-05-10T10:52:45;11.57;63.30
80412;SHT30;69749;42.684;23.360;2023-05-10T10:55:20;11.52;63.49
80412;SHT30;69749;42.684;23.360;2023-05-10T10:57:52;11.59;63.93
80412;SHT30;69749;42.684;23.360;2023-05-10T11:00:33;11.68;63.19
80412;SHT30;69749;42.684;23.360;2023-05-10T11:03:08;11.73;63.51
80412;SHT30;69749;42.684;23.360;2023-05-10T11:08:28;11.87;62.80
80412;SHT30;69749;42.684;23.360;2023-05-10T11:13:36;11.75;62.51
80412;SHT30;69749;42.684;23.360;2023-05-10T11:16:17;11.85;62.89
80412;SHT30;69749;42.684;23.360;2023-05-10T11:19:12;11.76;63.62
80412;SHT30;69749;42.684;23.360;2023-05-10T11:21:51;11.83;63.10
80412;SHT30;69749;42.684;23.360;2023-05-10T11:24:36;11.87;63.14
80412;SHT30;69749;42.684;23.360;2023-05-10T11:27:08;11.86;63.54
80412;SHT30;69749;42.684;23.360;2023-05-10T11:29:33;11.92;62.87
80412;SHT30;69749;42.684;23.360;2023-05-10T11:31:59;11.96;63.20
80412;SHT30;69749;42.684;23.360;2023-05-10T11:34:29;11.92;63.33
80412;SHT30;69749;42.684;23.360;2023-05-10T11:36:57;11.92;62.90
80412;SHT30;69749;42.684;23.360;2023-05-10T11:39:27;12.00;62.99
80412;SHT30;69749;42.684;23.360;2023-05-10T11:41:52;11.96;63.03
80412;SHT30;69749;42.684;23.360;2023-05-10T11:44:18;11.85;63.38
80412;SHT30;69749;42.684;23.360;2023-05-10T11:46:43;11.89;63.82
80412;SHT30;69749;42.684;23.360;2023-05-10T11:49:08;11.99;63.27
80412;SHT30;69749;42.684;23.360;2023-05-10T11:51:35;12.00;62.53
80412;SHT30;69749;42.684;23.360;2023-05-10T11:54:05;12.02;63.72
80412;SHT30;69749;42.684;23.360;2023-05-10T11:56:32;12.10;63.06
80412;SHT30;69749;42.684;23.360;2023-05-10T11:58:57;12.06;62.68
80412;SHT30;69749;42.684;23.360;2023-05-10T12:01:27;12.02;63.29
80412;SHT30;69749;42.684;23.360;2023-05-10T12:03:55;12.13;63.09
80412;SHT30;69749;42.684;23.360;2023-05-10T12:06:29;12.23;63.12
80412;SHT30;69749;42.684;23.360;2023-05-10T12:08:56;12.31;63.63
80412;SHT30;69749;42.684;23.360;2023-05-10T12:11:25;12.36;63.21
80412;SHT30;69749;42.684;23.360;2023-05-10T12:13:50;12.37;62.75
80412;SHT30;69749;42.684;23.360;2023-05-10T12:16:18;12.29;62.25
80412;SHT30;69749;42.684;23.360;2023-05-10T12:18:44;12.26;63.16
80412;SHT30;69749;42.684;23.360;2023-05-10T12:21:11;12.37;62.37
80412;SHT30;69749;42.684;23.360;2023-05-10T12:23:37;12.34;62.18
80412;SHT30;69749;42.684;23.360;2023-05-10T12:26:03;12.23;62.16
80412;SHT30;69749;42.684;23.360;2023-05-10T12:28:32;12.29;62.53
80412;SHT30;69749;42.684;23.360;2023-05-10T12:30:59;12.24;62.84
80412;SHT30;69749;42.684;23.360;2023-05-10T12:33:25;12.33;63.11
80412;SHT30;69749;42.684;23.360;2023-05-10T12:35:52;12.34;62.79
80412;SHT30;69749;42.684;23.360;2023-05-10T12:38:28;12.36;62.09
80412;SHT30;69749;42.684;23.360;2023-05-10T12:40:58;12.29;62.66
80412;SHT30;69749;42.684;23.360;2023-05-10T12:43:23;12.21;62.08
80412;SHT30;69749;42.684;23.360;2023-05-10T12:45:49;12.19;63.06
80412;SHT30;69749;42.684;23.360;2023-05-10T12:48:15;12.27;62.08
80412;SHT30;69749;42.684;23.360;2023-05-10T12:50:40;12.29;62.59
80412;SHT30;69749;42.684;23.360;2023-05-10T12:53:06;12.30;62.64
80412;SHT30;69749;42.684;23.360;2023-05-10T12:55:32;12.16;61.84
80412;SHT30;69749;42.684;23.360;2023-05-10T12:57:57;12.09;62.15
80412;SHT30;69749;42.684;23.360;2023-05-10T13:00:22;12.04;62.56
80412;SHT30;69749;42.684;23.360;2023-05-10T13:02:48;11.99;62.55
80412;SHT30;69749;42.684;23.360;2023-05-10T13:05:14;11.97;63.25
80412;SHT30;69749;42.684;23.360;2023-05-10T13:07:39;12.04;62.98
80412;SHT30;69749;42.684;23.360;2023-05-10T13:10:06;12.00;63.09
80412;SHT30;69749;42.684;23.360;2023-05-10T13:12:31;12.00;63.54
80412;SHT30;69749;42.684;23.360;2023-05-10T13:14:57;12.12;63.85
80412;SHT30;69749;42.684;23.360;2023-05-10T13:17:22;12.19;62.81
80412;SHT30;69749;42.684;23.360;2023-05-10T13:19:48;12.24;63.16
80412;SHT30;69749;42.684;23.360;2023-05-10T13:22:13;12.30;62.24
80412;SHT30;69749;42.684;23.360;2023-05-10T13:24:39;12.19;62.18
80412;SHT30;69749;42.684;23.360;2023-05-10T13:27:04;12.23;62.08
80412;SHT30;69749;42.684;23.360;2023-05-10T13:29:30;12.23;62.51
80412;SHT30;69749;42.684;23.360;2023-05-10T13:31:55;12.21;62.60
80412;SHT30;69749;42.684;23.360;2023-05-10T13:34:21;12.16;62.47
80412;SHT30;69749;42.684;23.360;2023-05-10T13:36:47;12.29;62.55
80412;SHT30;69749;42.684;23.360;2023-05-10T13:39:13;12.30;62.09
80412;SHT30;69749;42.684;23.360;2023-05-10T13:41:38;12.29;62.26
80412;SHT30;69749;42.684;23.360;2023-05-10T13:44:04;12.26;62.03
80412;SHT30;69749;42.684;23.360;2023-05-10T13:46:29;12.24;62.60
80412;SHT30;69749;42.684;23.360;2023-05-10T13:48:55;12.30;62.81
80412;SHT30;69749;42.684;23.360;2023-05-10T13:51:22;12.30;62.51
80412;SHT30;69749;42.684;23.360;2023-05-10T13:53:47;12.30;62.37
80412;SHT30;69749;42.684;23.360;2023-05-10T13:56:38;12.33;61.63
80412;SHT30;69749;42.684;23.360;2023-05-10T13:59:03;12.26;62.30
80412;SHT30;69749;42.684;23.360;2023-05-10T14:01:28;12.17;62.11
80412;SHT30;69749;42.684;23.360;2023-05-10T14:03:54;12.19;62.64
80412;SHT30;69749;42.684;23.360;2023-05-10T14:06:19;12.20;62.79
80412;SHT30;69749;42.684;23.360;2023-05-10T14:08:45;12.19;62.53
80412;SHT30;69749;42.684;23.360;2023-05-10T14:11:14;12.19;62.71
80412;SHT30;69749;42.684;23.360;2023-05-10T14:13:39;12.20;62.59
80412;SHT30;69749;42.684;23.360;2023-05-10T14:16:05;12.16;62.76
80412;SHT30;69749;42.684;23.360;2023-05-10T14:18:30;12.14;62.69
80412;SHT30;69749;42.684;23.360;2023-05-10T14:20:56;12.07;63.20
80412;SHT30;69749;42.684;23.360;2023-05-10T14:23:22;12.13;63.11
80412;SHT30;69749;42.684;23.360;2023-05-10T14:25:51;12.09;63.05
80412;SHT30;69749;42.684;23.360;2023-05-10T14:28:17;12.09;63.01
80412;SHT30;69749;42.684;23.360;2023-05-10T14:30:43;12.17;63.12
80412;SHT30;69749;42.684;23.360;2023-05-10T14:33:10;12.03;63.29
80412;SHT30;69749;42.684;23.360;2023-05-10T14:35:35;12.12;63.44
80412;SHT30;69749;42.684;23.360;2023-05-10T14:38:02;12.21;63.52
80412;SHT30;69749;42.684;23.360;2023-05-10T14:40:28;12.26;63.21
80412;SHT30;69749;42.684;23.360;2023-05-10T14:42:54;12.27;62.92
80412;SHT30;69749;42.684;23.360;2023-05-10T14:45:20;12.29;62.98
80412;SHT30;69749;42.684;23.360;2023-05-10T14:47:46;12.29;63.42
80412;SHT30;69749;42.684;23.360;2023-05-10T14:50:11;12.27;62.47
80412;SHT30;69749;42.684;23.360;2023-05-10T14:55:58;12.29;62.45
80412;SHT30;69749;42.684;23.360;2023-05-10T14:58:25;12.21;62.74
80412;SHT30;69749;42.684;23.360;2023-05-10T15:00:50;12.29;63.05
80412;SHT30;69749;42.684;23.360;2023-05-10T15:03:16;12.30;62.87
80412;SHT30;69749;42.684;23.360;2023-05-10T15:05:42;12.31;63.33
80412;SHT30;69749;42.684;23.360;2023-05-10T15:08:07;12.40;62.07
80412;SHT30;69749;42.684;23.360;2023-05-10T15:10:34;12.29;62.62
80412;SHT30;69749;42.684;23.360;2023-05-10T15:13:00;12.20;62.71
80412;SHT30;69749;42.684;23.360;2023-05-10T15:15:25;12.23;62.88
80412;SHT30;69749;42.684;23.360;2023-05-10T15:17:51;12.19;63.07
80412;SHT30;69749;42.684;23.360;2023-05-10T15:20:16;12.13;63.31
80412;SHT30;69749;42.684;23.360;2023-05-10T15:22:42;12.13;62.55
80412;SHT30;69749;42.684;23.360;2023-05-10T15:25:07;12.10;63.49
80412;SHT30;69749;42.684;23.360;2023-05-10T15:27:33;12.14;63.23
80412;SHT30;69749;42.684;23.360;2023-05-10T15:29:58;12.14;62.15
80412;SHT30;69749;42.684;23.360;2023-05-10T15:32:24;12.21;62.29
80412;SHT30;69749;42.684;23.360;2023-05-10T15:34:50;12.14;62.59
80412;SHT30;69749;42.684;23.360;2023-05-10T15:37:15;12.07;62.41
80412;SHT30;69749;42.684;23.360;2023-05-10T15:39:40;12.02;62.80
80412;SHT30;69749;42.684;23.360;2023-05-10T15:42:06;12.02;63.40
80412;SHT30;69749;42.684;23.360;2023-05-10T15:44:31;12.04;62.52
80412;SHT30;69749;42.684;23.360;2023-05-10T15:47:00;12.03;63.12
80412;SHT30;69749;42.684;23.360;2023-05-10T15:49:25;12.07;63.08
80412;SHT30;69749;42.684;23.360;2023-05-10T15:51:51;11.97;63.16
80412;SHT30;69749;42.684;23.360;2023-05-10T15:54:16;12.02;63.15
80412;SHT30;69749;42.684;23.360;2023-05-10T15:56:41;12.13;62.51
80412;SHT30;69749;42.684;23.360;2023-05-10T15:59:07;12.07;62.46
80412;SHT30;69749;42.684;23.360;2023-05-10T16:01:34;12.10;62.46